Time;durP1;ratioP1;P1;durP2;ratioP2;P2;SDS_P1;SDS_P2;PMS_P1;PMS_P2;Temp;Humidity;BMP_temperature;BMP_pressure;BME280_temperature;BME280_humidity;BME280_pressure;Samples;Min_cycle;Max_cycle;Signal;HPM_P1;HPM_P2
2022/06/04 00:00:15;;;;;;;0.30;0.30;;;14.60;99.90;;;;;;5113918;28;20166;-70
2022/06/04 00:02:43;;;;;;;0.30;0.30;;;14.60;99.90;;;;;;5113380;28;20668;-71
2022/06/04 00:05:11;;;;;;;0.30;0.30;;;14.60;99.90;;;;;;5113657;28;20468;-71
2022/06/04 00:07:37;;;;;;;0.40;0.40;;;14.70;99.90;;;;;;5113700;28;20398;-71
2022/06/04 00:15:38;;;;;;;0.30;0.30;;;14.80;99.90;;;;;;5113853;28;20405;-71
2022/06/04 00:18:03;;;;;;;0.30;0.30;;;14.80;99.90;;;;;;5113789;28;20411;-69
2022/06/04 00:20:29;;;;;;;1.80;0.93;;;14.90;99.90;;;;;;5113689;28;20782;-71
2022/06/04 00:23:00;;;;;;;0.47;0.47;;;14.90;99.90;;;;;;5113196;28;20707;-71
2022/06/04 00:25:25;;;;;;;0.30;0.30;;;15.00;99.90;;;;;;5113651;28;20192;-71
2022/06/04 00:27:51;;;;;;;0.30;0.30;;;15.00;99.90;;;;;;5113393;28;20404;-70
2022/06/04 00:30:17;;;;;;;0.30;0.30;;;14.90;99.90;;;;;;5113548;28;20170;-70
2022/06/04 00:32:42;;;;;;;0.30;0.30;;;15.00;99.90;;;;;;5113244;28;20192;-70
2022/06/04 00:35:08;;;;;;;0.30;0.30;;;15.00;99.90;;;;;;5113453;28;20176;-69
2022/06/04 00:37:35;;;;;;;0.30;0.30;;;15.00;99.90;;;;;;5113603;28;20197;-69
2022/06/04 00:40:02;;;;;;;0.30;0.30;;;15.00;99.90;;;;;;5113570;28;20168;-69
2022/06/04 00:42:28;;;;;;;0.30;0.30;;;15.00;99.90;;;;;;5113104;28;20928;-71
2022/06/04 00:45:21;;;;;;;0.30;0.30;;;15.00;99.90;;;;;;5113514;28;20460;-69
2022/06/04 00:47:51;;;;;;;0.43;0.43;;;15.00;99.90;;;;;;5114515;28;20652;-69
2022/06/04 00:50:19;;;;;;;0.30;0.30;;;15.00;99.90;;;;;;5117113;28;20771;-69
2022/06/04 00:52:47;;;;;;;0.30;0.30;;;15.10;99.90;;;;;;5116540;28;20442;-69
2022/06/04 00:55:13;;;;;;;0.40;0.40;;;15.20;99.90;;;;;;5116791;28;20397;-70
2022/06/04 00:57:45;;;;;;;0.30;0.30;;;15.20;99.90;;;;;;5116847;28;20409;-71
2022/06/04 01:00:33;;;;;;;0.60;0.60;;;15.30;99.90;;;;;;5116856;28;20432;-69
2022/06/04 01:03:32;;;;;;;0.30;0.30;;;15.30;99.90;;;;;;5116060;28;20567;-72
2022/06/04 01:06:27;;;;;;;0.30;0.30;;;15.20;99.90;;;;;;5116724;28;20426;-70
2022/06/04 01:09:10;;;;;;;0.30;0.30;;;15.20;99.90;;;;;;5116751;28;20435;-71
2022/06/04 01:12:09;;;;;;;0.30;0.30;;;15.20;99.90;;;;;;5116506;28;20410;-69
2022/06/04 01:14:31;;;;;;;0.30;0.30;;;15.20;99.90;;;;;;5116256;28;20823;-69
2022/06/04 01:17:12;;;;;;;0.30;0.30;;;15.20;99.90;;;;;;5116669;28;20412;-71
2022/06/04 01:19:52;;;;;;;0.30;0.30;;;15.20;99.90;;;;;;5115031;28;20400;-70
2022/06/04 01:22:35;;;;;;;0.90;0.90;;;15.20;99.90;;;;;;5116429;28;20465;-70
2022/06/04 01:25:25;;;;;;;1.17;1.07;;;15.20;99.90;;;;;;5116316;27;20443;-71
2022/06/04 01:27:58;;;;;;;0.30;0.30;;;15.30;99.90;;;;;;5116442;28;20537;-71
2022/06/04 01:30:47;;;;;;;0.30;0.30;;;15.30;99.90;;;;;;5116192;28;20381;-71
2022/06/04 01:33:44;;;;;;;0.30;0.30;;;15.40;99.90;;;;;;5108423;28;20491;-70
2022/06/04 01:36:39;;;;;;;3.60;1.80;;;15.40;99.90;;;;;;5107033;28;20479;-70
2022/06/04 01:39:14;;;;;;;0.40;0.40;;;15.30;99.90;;;;;;5116067;28;20407;-70
2022/06/04 01:41:57;;;;;;;0.30;0.30;;;15.30;99.90;;;;;;5116122;28;20423;-70
2022/06/04 01:44:31;;;;;;;0.30;0.30;;;15.40;99.90;;;;;;5115838;27;20448;-69
2022/06/04 01:47:01;;;;;;;0.30;0.30;;;15.50;99.90;;;;;;5116342;28;20401;-70
2022/06/04 01:49:42;;;;;;;0.30;0.30;;;15.60;99.90;;;;;;5115828;28;20397;-70
2022/06/04 01:52:23;;;;;;;0.30;0.30;;;15.60;99.90;;;;;;5115670;28;20468;-71
2022/06/04 01:55:04;;;;;;;0.30;0.30;;;15.40;99.90;;;;;;5115916;28;20398;-69
2022/06/04 01:57:41;;;;;;;0.40;0.40;;;15.30;99.90;;;;;;5116105;28;20406;-71
2022/06/04 02:00:15;;;;;;;0.30;0.30;;;15.40;99.90;;;;;;5115583;28;20555;-71
2022/06/04 02:02:47;;;;;;;0.30;0.30;;;15.50;99.90;;;;;;5115495;28;20429;-71
2022/06/04 02:05:19;;;;;;;0.30;0.30;;;15.20;99.90;;;;;;5115671;28;20455;-71
2022/06/04 02:07:48;;;;;;;0.30;0.30;;;14.70;99.90;;;;;;5115614;28;20422;-68
2022/06/04 02:10:25;;;;;;;0.30;0.30;;;14.70;99.90;;;;;;5115367;28;20897;-70
2022/06/04 02:12:53;;;;;;;0.30;0.30;;;14.90;99.90;;;;;;5115167;28;20414;-70
2022/06/04 02:15:25;;;;;;;0.30;0.30;;;15.00;99.90;;;;;;5114043;28;20410;-70
2022/06/04 02:17:56;;;;;;;0.30;0.30;;;15.10;99.90;;;;;;5115421;28;20424;-70
2022/06/04 02:20:22;;;;;;;0.30;0.30;;;15.20;99.90;;;;;;5115372;28;20406;-69
2022/06/04 02:22:49;;;;;;;0.30;0.30;;;15.20;99.90;;;;;;5114767;28;20786;-71
2022/06/04 02:25:15;;;;;;;0.30;0.30;;;15.20;99.90;;;;;;5115259;28;20258;-71
2022/06/04 02:27:43;;;;;;;0.30;0.30;;;15.20;99.90;;;;;;5115171;28;21029;-71
2022/06/04 02:30:10;;;;;;;0.30;0.30;;;15.10;99.90;;;;;;5115132;28;20406;-70
2022/06/04 02:32:57;;;;;;;0.33;0.33;;;15.10;99.90;;;;;;5114846;27;20853;-70
2022/06/04 02:35:34;;;;;;;0.33;0.33;;;14.90;99.90;;;;;;5115177;28;20395;-70
2022/06/04 02:38:44;;;;;;;0.30;0.30;;;14.90;99.90;;;;;;5114963;28;20409;-70
2022/06/04 02:41:27;;;;;;;0.30;0.30;;;15.00;99.90;;;;;;5104172;28;20433;-71
2022/06/04 02:44:02;;;;;;;0.30;0.30;;;15.10;99.90;;;;;;5114634;28;20392;-70
2022/06/04 02:46:41;;;;;;;0.30;0.30;;;15.10;99.90;;;;;;5114781;28;20394;-69
2022/06/04 02:49:27;;;;;;;0.30;0.30;;;15.10;99.90;;;;;;5114891;28;20794;-69
2022/06/04 02:51:54;;;;;;;0.40;0.40;;;15.10;99.90;;;;;;5114507;28;20422;-69
2022/06/04 02:54:29;;;;;;;0.30;0.30;;;15.00;99.90;;;;;;5114463;28;20402;-71
2022/06/04 02:56:57;;;;;;;0.30;0.30;;;15.00;99.90;;;;;;5114755;28;20433;-71
2022/06/04 02:59:25;;;;;;;0.40;0.40;;;15.10;99.90;;;;;;5114758;28;20433;-69
2022/06/04 03:01:55;;;;;;;0.30;0.30;;;15.00;99.90;;;;;;5114579;28;20429;-69
2022/06/04 03:04:21;;;;;;;0.30;0.30;;;15.00;99.90;;;;;;5114196;27;20515;-70
2022/06/04 03:06:47;;;;;;;0.30;0.30;;;15.10;99.90;;;;;;5114678;28;20429;-71
2022/06/04 03:09:16;;;;;;;0.40;0.40;;;15.10;99.90;;;;;;5114428;28;20168;-71
2022/06/04 03:11:47;;;;;;;0.30;0.30;;;15.00;99.90;;;;;;5113733;28;20194;-70
2022/06/04 03:14:14;;;;;;;0.30;0.30;;;14.90;99.90;;;;;;5114246;28;20504;-69
2022/06/04 03:16:42;;;;;;;0.30;0.30;;;14.90;99.90;;;;;;5114424;28;20834;-70
2022/06/04 03:19:09;;;;;;;0.40;0.40;;;14.90;99.90;;;;;;5114205;28;20419;-71
2022/06/04 03:21:36;;;;;;;0.30;0.30;;;14.90;99.90;;;;;;5114186;28;20421;-69
2022/06/04 03:24:04;;;;;;;0.30;0.30;;;14.90;99.90;;;;;;5113777;28;20458;-70
2022/06/04 03:26:29;;;;;;;0.30;0.30;;;14.90;99.90;;;;;;5114254;28;20407;-69
2022/06/04 03:28:55;;;;;;;0.30;0.30;;;14.80;99.90;;;;;;5114227;28;20401;-71
2022/06/04 03:31:21;;;;;;;0.40;0.40;;;14.80;99.90;;;;;;5114183;28;20653;-71
2022/06/04 03:33:47;;;;;;;0.30;0.30;;;14.90;99.90;;;;;;5114007;28;20169;-70
2022/06/04 03:36:12;;;;;;;0.30;0.30;;;14.80;99.90;;;;;;5114225;28;20422;-70
2022/06/04 03:38:38;;;;;;;0.30;0.30;;;14.90;99.90;;;;;;5114213;28;20245;-70
2022/06/04 03:41:04;;;;;;;0.30;0.30;;;15.00;99.90;;;;;;5114109;28;20516;-70
2022/06/04 03:43:30;;;;;;;0.30;0.30;;;15.00;99.90;;;;;;5113663;28;20203;-71
2022/06/04 03:45:55;;;;;;;0.30;0.30;;;15.00;99.90;;;;;;5114228;28;20622;-71
2022/06/04 03:48:22;;;;;;;0.30;0.30;;;15.00;99.90;;;;;;5114087;28;20174;-71
2022/06/04 03:50:48;;;;;;;0.30;0.30;;;15.20;99.90;;;;;;5114026;28;20161;-69
2022/06/04 03:53:14;;;;;;;0.30;0.30;;;14.90;99.90;;;;;;5113744;28;20406;-71
2022/06/04 03:55:40;;;;;;;0.30;0.30;;;14.80;99.90;;;;;;5113825;28;20417;-69
2022/06/04 03:58:06;;;;;;;0.40;0.40;;;14.90;99.90;;;;;;5113984;28;20402;-70
2022/06/04 04:00:38;;;;;;;0.30;0.30;;;14.90;99.90;;;;;;5113773;28;20450;-71
2022/06/04 04:03:08;;;;;;;0.30;0.30;;;15.00;99.90;;;;;;5113840;28;20561;-72
2022/06/04 04:05:37;;;;;;;0.30;0.30;;;15.00;99.90;;;;;;5113865;28;20531;-68
2022/06/04 04:08:06;;;;;;;0.30;0.30;;;15.20;99.90;;;;;;5113862;28;20735;-69
2022/06/04 04:10:32;;;;;;;0.30;0.30;;;15.30;99.90;;;;;;5113504;28;20394;-70
2022/06/04 04:12:58;;;;;;;0.30;0.30;;;15.30;99.90;;;;;;5113428;28;20508;-71
2022/06/04 04:15:25;;;;;;;0.30;0.30;;;15.30;99.90;;;;;;5113876;28;20168;-70
2022/06/04 04:17:51;;;;;;;0.30;0.30;;;15.30;99.90;;;;;;5113635;28;20423;-71
2022/06/04 04:20:26;;;;;;;0.30;0.30;;;15.20;99.90;;;;;;5113518;28;20411;-70
2022/06/04 04:22:52;;;;;;;0.30;0.30;;;15.30;99.90;;;;;;5114410;28;20933;-71
2022/06/04 04:25:21;;;;;;;0.30;0.30;;;15.30;99.90;;;;;;5117935;28;20447;-70
2022/06/04 04:27:48;;;;;;;0.30;0.30;;;15.40;99.90;;;;;;5116125;28;20893;-70
2022/06/04 04:30:16;;;;;;;0.70;0.67;;;15.50;99.90;;;;;;5117575;28;20398;-70
2022/06/04 04:32:42;;;;;;;0.30;0.30;;;15.50;99.90;;;;;;5117069;28;20930;-71
2022/06/04 04:35:14;;;;;;;0.30;0.30;;;15.60;99.90;;;;;;5117205;28;20398;-69
2022/06/04 04:37:40;;;;;;;0.30;0.30;;;15.60;99.90;;;;;;5117426;28;20413;-69
2022/06/04 04:40:06;;;;;;;0.30;0.30;;;15.60;99.90;;;;;;5117186;28;20403;-70
2022/06/04 04:42:32;;;;;;;0.30;0.30;;;15.70;99.90;;;;;;5116885;28;20443;-71
2022/06/04 04:44:57;;;;;;;0.30;0.30;;;15.70;99.90;;;;;;5117228;28;20457;-69
2022/06/04 04:47:23;;;;;;;0.30;0.30;;;15.60;99.90;;;;;;5117122;28;20172;-70
2022/06/04 04:49:49;;;;;;;0.30;0.30;;;15.70;99.90;;;;;;5117171;28;20187;-69
2022/06/04 04:52:15;;;;;;;0.30;0.30;;;15.70;99.90;;;;;;5115404;28;20968;-69
2022/06/04 04:54:40;;;;;;;0.30;0.30;;;15.70;99.90;;;;;;5116898;28;20171;-69
2022/06/04 04:57:06;;;;;;;0.30;0.30;;;15.70;99.90;;;;;;5116888;28;20526;-70
2022/06/04 04:59:32;;;;;;;0.30;0.30;;;15.80;99.90;;;;;;5117050;28;20566;-71
2022/06/04 05:01:57;;;;;;;0.30;0.30;;;15.70;99.90;;;;;;5116645;28;20726;-70
2022/06/04 05:04:23;;;;;;;0.30;0.30;;;15.70;99.90;;;;;;5116625;28;20198;-70
2022/06/04 05:06:49;;;;;;;0.40;0.40;;;15.70;99.90;;;;;;5116784;28;20171;-71
2022/06/04 05:09:14;;;;;;;0.30;0.30;;;15.70;99.90;;;;;;5116637;28;20163;-70
2022/06/04 05:11:41;;;;;;;0.30;0.30;;;15.70;99.90;;;;;;5116507;28;20259;-71
2022/06/04 05:14:06;;;;;;;0.40;0.40;;;15.70;99.90;;;;;;5116460;28;20164;-70
2022/06/04 05:16:35;;;;;;;0.30;0.30;;;15.70;99.90;;;;;;5116626;28;20888;-70
2022/06/04 05:19:02;;;;;;;0.30;0.30;;;15.80;99.90;;;;;;5117098;27;20323;-68
2022/06/04 05:21:35;;;;;;;0.30;0.30;;;15.90;99.90;;;;;;5116509;27;20519;-71
2022/06/04 05:24:01;;;;;;;0.53;0.53;;;15.90;99.90;;;;;;5116136;28;20508;-70
2022/06/04 05:26:27;;;;;;;0.50;0.50;;;15.90;99.90;;;;;;5116470;28;20886;-70
2022/06/04 05:28:53;;;;;;;0.30;0.30;;;16.00;99.90;;;;;;5116135;28;20217;-70
2022/06/04 05:31:19;;;;;;;0.30;0.30;;;16.10;99.90;;;;;;5116156;28;20193;-71
2022/06/04 05:33:45;;;;;;;0.30;0.30;;;16.10;99.90;;;;;;5115444;28;20404;-69
2022/06/04 05:36:12;;;;;;;0.30;0.30;;;16.30;99.90;;;;;;5116049;28;20911;-70
2022/06/04 05:38:39;;;;;;;0.30;0.30;;;16.40;99.90;;;;;;5116058;28;20757;-70
2022/06/04 05:41:07;;;;;;;0.30;0.30;;;16.60;99.90;;;;;;5115908;27;20501;-71
2022/06/04 05:43:34;;;;;;;0.67;0.67;;;16.70;99.90;;;;;;5115882;28;20405;-69
2022/06/04 05:46:06;;;;;;;0.30;0.30;;;16.80;99.90;;;;;;5116375;28;20991;-70
2022/06/04 05:48:32;;;;;;;0.30;0.30;;;16.80;99.90;;;;;;5115960;28;20402;-71
2022/06/04 05:50:58;;;;;;;0.30;0.30;;;16.80;99.90;;;;;;5114449;28;20517;-69
2022/06/04 05:53:24;;;;;;;0.30;0.30;;;16.80;99.90;;;;;;5115545;28;20406;-71
2022/06/04 05:55:51;;;;;;;0.30;0.30;;;16.90;99.90;;;;;;5115778;28;20168;-70
2022/06/04 05:58:17;;;;;;;0.30;0.30;;;17.00;99.90;;;;;;5115729;27;20406;-70
2022/06/04 06:00:43;;;;;;;0.30;0.30;;;17.30;99.90;;;;;;5115717;28;20410;-70
2022/06/04 06:03:10;;;;;;;0.30;0.30;;;17.60;99.90;;;;;;5115342;28;20411;-70
2022/06/04 06:05:42;;;;;;;0.30;0.30;;;17.90;99.90;;;;;;5115452;28;20452;-71
2022/06/04 06:08:07;;;;;;;0.30;0.30;;;18.10;99.90;;;;;;5115520;28;20394;-70
2022/06/04 06:10:39;;;;;;;0.30;0.30;;;18.10;99.90;;;;;;5115747;28;20398;-69
2022/06/04 06:13:05;;;;;;;0.30;0.30;;;18.10;99.90;;;;;;5115280;28;20184;-70
2022/06/04 06:15:31;;;;;;;0.30;0.30;;;18.10;99.90;;;;;;5115405;28;20761;-71
2022/06/04 06:17:57;;;;;;;0.30;0.30;;;18.10;99.90;;;;;;5115246;28;20402;-70
2022/06/04 06:20:22;;;;;;;0.30;0.30;;;18.00;99.90;;;;;;5115443;28;20186;-70
2022/06/04 06:22:48;;;;;;;0.30;0.30;;;18.30;99.90;;;;;;5114815;28;20710;-71
2022/06/04 06:25:13;;;;;;;0.30;0.30;;;18.80;99.90;;;;;;5115269;28;20199;-69
2022/06/04 06:27:39;;;;;;;0.30;0.30;;;20.10;99.90;;;;;;5115206;28;20193;-70
2022/06/04 06:30:05;;;;;;;0.30;0.30;;;21.30;99.90;;;;;;5115126;27;20172;-70
2022/06/04 06:32:31;;;;;;;0.30;0.30;;;21.90;99.70;;;;;;5114821;28;20242;-70
2022/06/04 06:34:57;;;;;;;0.30;0.30;;;21.90;99.10;;;;;;5114956;28;20491;-69
2022/06/04 06:37:22;;;;;;;0.30;0.30;;;21.70;98.40;;;;;;5114952;28;20670;-71
2022/06/04 06:39:48;;;;;;;0.30;0.30;;;21.40;98.70;;;;;;5114890;28;20171;-70
2022/06/04 06:42:13;;;;;;;0.40;0.40;;;21.00;98.90;;;;;;5113461;28;20575;-71
2022/06/04 06:44:39;;;;;;;0.33;0.33;;;20.70;99.60;;;;;;5114506;28;20540;-70
2022/06/04 06:47:07;;;;;;;0.30;0.30;;;20.50;99.90;;;;;;5114404;28;20219;-70
2022/06/04 06:49:33;;;;;;;0.30;0.30;;;20.50;99.90;;;;;;5114680;28;20427;-69
2022/06/04 06:52:01;;;;;;;0.30;0.30;;;20.60;99.90;;;;;;5114502;28;20439;-70
2022/06/04 06:54:31;;;;;;;0.30;0.30;;;21.10;99.90;;;;;;5114688;28;20614;-71
2022/06/04 06:56:57;;;;;;;0.30;0.30;;;22.30;99.40;;;;;;5114525;28;20409;-72
2022/06/04 06:59:25;;;;;;;0.30;0.30;;;24.30;97.00;;;;;;5114639;28;20399;-70
2022/06/04 07:01:51;;;;;;;0.30;0.30;;;25.90;94.40;;;;;;5114754;28;20487;-71
2022/06/04 07:04:19;;;;;;;0.30;0.30;;;26.60;90.10;;;;;;5114187;28;20465;-71
2022/06/04 07:06:47;;;;;;;0.40;0.40;;;26.00;91.30;;;;;;5114432;28;20426;-70
2022/06/04 07:09:19;;;;;;;0.43;0.43;;;25.60;92.70;;;;;;5114473;28;20772;-69
2022/06/04 07:11:45;;;;;;;0.30;0.30;;;26.20;91.60;;;;;;5114186;28;20418;-72
2022/06/04 07:14:11;;;;;;;0.40;0.40;;;27.70;87.40;;;;;;5114027;28;20398;-71
2022/06/04 07:16:37;;;;;;;0.30;0.30;;;29.10;85.00;;;;;;5114369;28;20164;-70
2022/06/04 07:19:03;;;;;;;0.30;0.30;;;30.50;79.70;;;;;;5114265;28;20416;-71
2022/06/04 07:21:29;;;;;;;0.40;0.40;;;30.80;71.00;;;;;;5114146;28;20191;-72
2022/06/04 07:23:56;;;;;;;0.30;0.30;;;30.20;76.20;;;;;;5113725;28;20429;-71
2022/06/04 07:26:22;;;;;;;0.30;0.30;;;29.60;76.00;;;;;;5114249;28;20412;-71
2022/06/04 07:28:48;;;;;;;0.30;0.30;;;29.00;78.30;;;;;;5114017;28;20785;-71
2022/06/04 07:31:15;;;;;;;0.30;0.30;;;28.40;81.00;;;;;;5113999;28;20429;-71
2022/06/04 07:33:46;;;;;;;0.30;0.30;;;28.20;83.80;;;;;;5113962;28;20229;-71
2022/06/04 07:36:20;;;;;;;0.30;0.30;;;28.30;82.50;;;;;;5114221;28;20874;-71
2022/06/04 07:38:46;;;;;;;0.40;0.40;;;28.00;80.80;;;;;;5114132;28;20405;-70
2022/06/04 07:41:33;;;;;;;0.30;0.30;;;27.30;86.40;;;;;;5114061;28;20474;-70
2022/06/04 07:43:59;;;;;;;0.30;0.30;;;27.10;88.30;;;;;;5113789;28;20409;-72
2022/06/04 07:46:27;;;;;;;0.30;0.30;;;27.20;86.00;;;;;;5113978;28;20407;-71
2022/06/04 07:48:57;;;;;;;0.30;0.30;;;26.90;84.80;;;;;;5114093;28;20402;-71
2022/06/04 07:51:23;;;;;;;0.30;0.30;;;26.50;84.30;;;;;;5113887;28;20426;-71
2022/06/04 07:53:49;;;;;;;0.30;0.30;;;26.20;85.30;;;;;;5113600;28;20474;-71
2022/06/04 07:56:17;;;;;;;0.50;0.40;;;26.20;88.50;;;;;;5114183;28;20893;-71
2022/06/04 07:58:43;;;;;;;0.30;0.30;;;25.80;89.40;;;;;;5118021;28;20398;-70
2022/06/04 08:01:14;;;;;;;0.30;0.30;;;26.70;90.40;;;;;;5117909;28;20428;-72
2022/06/04 08:03:41;;;;;;;0.40;0.40;;;27.70;86.70;;;;;;5117809;28;20515;-71
2022/06/04 08:06:07;;;;;;;0.30;0.30;;;29.40;84.20;;;;;;5117672;28;20812;-70
2022/06/04 08:08:34;;;;;;;0.30;0.30;;;30.80;80.10;;;;;;5116449;28;20470;-70
2022/06/04 08:11:30;;;;;;;0.30;0.30;;;31.10;72.60;;;;;;5117679;28;20414;-72
2022/06/04 08:13:47;;;;;;;0.40;0.40;;;31.70;72.50;;;;;;5117509;28;20832;-73
2022/06/04 08:16:12;;;;;;;0.30;0.30;;;32.10;69.40;;;;;;5117744;28;20445;-68
2022/06/04 08:18:38;;;;;;;0.30;0.30;;;32.50;69.00;;;;;;5117524;28;20168;-68
2022/06/04 08:21:07;;;;;;;0.30;0.30;;;31.50;65.50;;;;;;5117435;28;20184;-68
2022/06/04 08:23:33;;;;;;;0.33;0.33;;;31.40;64.40;;;;;;5117245;28;20184;-70
2022/06/04 08:25:59;;;;;;;0.30;0.30;;;31.40;72.00;;;;;;5117586;28;20843;-71
2022/06/04 08:28:25;;;;;;;0.30;0.30;;;31.50;70.30;;;;;;5117562;28;20172;-71
2022/06/04 08:31:04;;;;;;;0.30;0.30;;;32.10;64.80;;;;;;5117416;28;20175;-72
2022/06/04 08:33:31;;;;;;;0.30;0.30;;;31.50;62.70;;;;;;5117153;28;20254;-71
2022/06/04 08:35:56;;;;;;;0.60;0.47;;;31.10;71.20;;;;;;5117440;28;20401;-71
2022/06/04 08:38:22;;;;;;;0.30;0.30;;;31.20;70.20;;;;;;5117126;28;20409;-71
2022/06/04 08:40:59;;;;;;;0.30;0.30;;;30.80;69.80;;;;;;5117231;28;20179;-72
2022/06/04 08:43:25;;;;;;;0.30;0.30;;;31.10;74.70;;;;;;5116863;28;20733;-70
2022/06/04 08:45:51;;;;;;;0.30;0.30;;;32.00;72.30;;;;;;5117198;28;20499;-70
2022/06/04 08:48:21;;;;;;;0.30;0.30;;;32.50;64.20;;;;;;5117210;28;20179;-70
2022/06/04 08:50:48;;;;;;;0.40;0.40;;;33.10;59.10;;;;;;5117002;28;20484;-70
2022/06/04 08:53:24;;;;;;;0.30;0.30;;;32.90;57.70;;;;;;5116696;28;20771;-69
2022/06/04 08:58:53;;;;;;;0.30;0.30;;;31.40;63.10;;;;;;5116832;28;20394;-70
2022/06/04 09:01:33;;;;;;;0.30;0.30;;;30.60;68.80;;;;;;5116798;28;20417;-71
2022/06/04 09:04:29;;;;;;;0.50;0.50;;;30.10;67.30;;;;;;5116638;28;20455;-71
2022/06/04 09:07:06;;;;;;;0.47;0.47;;;29.80;69.60;;;;;;5116650;28;20398;-70
2022/06/04 09:09:33;;;;;;;0.30;0.30;;;29.60;68.60;;;;;;5114557;28;20746;-71
2022/06/04 09:12:07;;;;;;;0.57;0.57;;;29.80;67.20;;;;;;5116550;28;20418;-71
2022/06/04 09:14:39;;;;;;;0.47;0.47;;;30.10;66.10;;;;;;5116665;28;20743;-70
2022/06/04 09:17:16;;;;;;;0.30;0.30;;;31.30;67.60;;;;;;5116668;28;20546;-70
2022/06/04 09:19:48;;;;;;;0.30;0.30;;;32.40;60.20;;;;;;5116421;28;20400;-70
2022/06/04 09:22:22;;;;;;;0.30;0.30;;;33.50;59.50;;;;;;5116063;28;20425;-70
2022/06/04 09:24:49;;;;;;;0.30;0.30;;;34.80;61.20;;;;;;5116476;28;20449;-70
2022/06/04 09:27:28;;;;;;;0.30;0.30;;;35.30;55.80;;;;;;5116314;28;20485;-71
2022/06/04 09:30:24;;;;;;;0.30;0.30;;;35.60;53.70;;;;;;5116224;28;20394;-72
2022/06/04 09:33:18;;;;;;;0.30;0.30;;;36.10;58.00;;;;;;5115927;27;20889;-71
2022/06/04 09:35:44;;;;;;;0.30;0.30;;;35.40;49.80;;;;;;5116524;28;20543;-69
2022/06/04 09:38:39;;;;;;;0.50;0.40;;;35.50;55.20;;;;;;5116080;28;20870;-72
2022/06/04 09:41:18;;;;;;;0.50;0.40;;;36.20;51.00;;;;;;5106864;28;20254;-70
2022/06/04 09:43:45;;;;;;;0.30;0.30;;;35.60;52.90;;;;;;5115755;28;20413;-71
2022/06/04 09:46:13;;;;;;;0.30;0.30;;;35.50;48.90;;;;;;5116271;28;20843;-71
2022/06/04 09:48:47;;;;;;;0.30;0.30;;;35.20;50.60;;;;;;5116086;28;20410;-70
2022/06/04 09:51:23;;;;;;;0.30;0.30;;;34.90;50.50;;;;;;5115887;28;20421;-72
2022/06/04 09:54:03;;;;;;;0.30;0.30;;;34.30;49.60;;;;;;5115684;28;20432;-69
2022/06/04 09:56:37;;;;;;;0.30;0.30;;;34.40;50.60;;;;;;5115812;28;20408;-68
2022/06/04 09:59:16;;;;;;;0.53;0.50;;;34.40;50.40;;;;;;5115644;28;20406;-72
2022/06/04 10:01:52;;;;;;;0.40;0.40;;;34.40;49.20;;;;;;5115624;28;20804;-72
2022/06/04 10:04:18;;;;;;;0.30;0.30;;;33.90;52.00;;;;;;5115493;28;20528;-71
2022/06/04 10:06:44;;;;;;;0.30;0.30;;;33.90;52.80;;;;;;5114286;28;20505;-72
2022/06/04 10:12:14;;;;;;;0.33;0.33;;;33.50;50.10;;;;;;5115492;28;20256;-71
2022/06/04 10:14:42;;;;;;;0.30;0.30;;;33.40;50.30;;;;;;5115563;28;20405;-68
2022/06/04 10:17:19;;;;;;;0.30;0.30;;;32.80;50.30;;;;;;5115346;28;20779;-70
2022/06/04 10:19:52;;;;;;;0.30;0.30;;;32.90;49.30;;;;;;5115193;28;20401;-71
2022/06/04 10:22:18;;;;;;;0.30;0.30;;;32.70;49.70;;;;;;5114797;28;20452;-71
2022/06/04 10:24:51;;;;;;;0.30;0.30;;;32.60;52.10;;;;;;5115137;28;20450;-72
2022/06/04 10:27:34;;;;;;;0.40;0.40;;;32.30;50.60;;;;;;5114958;28;20417;-72
2022/06/04 10:30:29;;;;;;;0.30;0.30;;;32.20;54.30;;;;;;5114992;28;20394;-72
2022/06/04 10:33:28;;;;;;;1.53;1.53;;;32.20;59.10;;;;;;5114757;28;20421;-71
2022/06/04 10:36:01;;;;;;;0.30;0.30;;;32.20;58.10;;;;;;5115045;28;20770;-71
2022/06/04 10:38:50;;;;;;;0.30;0.30;;;32.40;53.40;;;;;;5115030;28;20417;-69
2022/06/04 10:41:35;;;;;;;0.30;0.30;;;31.90;53.40;;;;;;5114932;28;20785;-71
2022/06/04 10:44:37;;;;;;;1.90;1.80;;;31.80;51.30;;;;;;5114667;28;20902;-70
2022/06/04 10:47:13;;;;;;;0.30;0.30;;;31.50;53.60;;;;;;5114809;28;20394;-70
2022/06/04 10:50:15;;;;;;;0.30;0.30;;;31.10;51.50;;;;;;5114685;28;20866;-71
2022/06/04 10:52:50;;;;;;;0.30;0.30;;;31.10;53.60;;;;;;5114254;28;20478;-70
2022/06/04 10:55:34;;;;;;;0.30;0.30;;;30.90;56.50;;;;;;5114564;28;20393;-70
2022/06/04 10:58:02;;;;;;;0.30;0.30;;;30.40;54.50;;;;;;5114592;28;20398;-69
2022/06/04 11:00:41;;;;;;;0.30;0.30;;;29.60;59.10;;;;;;5114583;28;20398;-71
2022/06/04 11:03:13;;;;;;;0.30;0.30;;;28.80;60.90;;;;;;5114247;28;20386;-71
2022/06/04 11:05:47;;;;;;;0.30;0.30;;;28.50;57.10;;;;;;5112758;28;20809;-71
2022/06/04 11:08:21;;;;;;;0.30;0.30;;;28.30;61.30;;;;;;5114431;28;20405;-69
2022/06/04 11:10:57;;;;;;;0.50;0.50;;;27.50;75.60;;;;;;5114426;28;20412;-71
2022/06/04 11:13:32;;;;;;;0.30;0.30;;;27.70;67.60;;;;;;5114151;28;20486;-70
2022/06/04 11:16:21;;;;;;;0.30;0.30;;;27.20;75.70;;;;;;5114453;28;20415;-69
2022/06/04 11:19:03;;;;;;;0.40;0.40;;;26.90;64.40;;;;;;5114289;28;20446;-70
2022/06/04 11:21:51;;;;;;;0.60;0.60;;;27.10;73.00;;;;;;5114216;28;20795;-70
2022/06/04 11:24:29;;;;;;;0.30;0.30;;;27.40;66.40;;;;;;5113814;28;20449;-70
2022/06/04 11:27:08;;;;;;;0.30;0.30;;;27.40;61.20;;;;;;5114157;28;20398;-71
2022/06/04 11:29:37;;;;;;;0.87;0.87;;;27.10;60.80;;;;;;5114259;28;20397;-69
2022/06/04 11:32:41;;;;;;;0.30;0.30;;;26.90;60.60;;;;;;5113368;28;20472;-71
2022/06/04 11:35:31;;;;;;;0.40;0.40;;;27.20;66.00;;;;;;5113627;28;20779;-69
2022/06/04 11:37:59;;;;;;;0.30;0.30;;;27.60;65.30;;;;;;5114217;28;20752;-69
2022/06/04 11:40:38;;;;;;;0.30;0.30;;;27.80;62.20;;;;;;5114134;28;20410;-69
2022/06/04 11:43:12;;;;;;;0.30;0.30;;;27.30;61.00;;;;;;5114118;28;20484;-70
2022/06/04 11:45:51;;;;;;;0.50;0.50;;;27.40;65.50;;;;;;5113888;28;20449;-71
2022/06/04 11:48:29;;;;;;;0.30;0.30;;;27.40;62.30;;;;;;5113428;28;20398;-69
2022/06/04 11:51:26;;;;;;;0.30;0.30;;;27.20;75.80;;;;;;5113991;28;20398;-70
2022/06/04 11:54:01;;;;;;;0.30;0.30;;;27.00;60.30;;;;;;5113701;28;20901;-71
2022/06/04 11:57:10;;;;;;;0.30;0.30;;;26.80;60.70;;;;;;5113940;28;20408;-71
2022/06/04 12:00:13;;;;;;;0.30;0.30;;;26.80;64.90;;;;;;5113974;28;20406;-71
2022/06/04 12:02:45;;;;;;;0.30;0.30;;;26.60;67.80;;;;;;5113585;28;20425;-70
2022/06/04 12:05:19;;;;;;;0.30;0.30;;;26.70;65.00;;;;;;5113620;28;20456;-71
2022/06/04 12:07:51;;;;;;;0.30;0.30;;;26.90;68.50;;;;;;5113814;28;20383;-70
2022/06/04 12:10:39;;;;;;;0.50;0.50;;;26.90;62.40;;;;;;5113704;28;20434;-70
2022/06/04 12:13:31;;;;;;;0.30;0.30;;;27.00;65.00;;;;;;5113606;28;20422;-69
2022/06/04 12:16:00;;;;;;;0.30;0.30;;;26.80;65.00;;;;;;5107648;28;20422;-71
2022/06/04 12:18:56;;;;;;;0.30;0.30;;;26.80;67.70;;;;;;5113806;28;20425;-71
2022/06/04 12:24:40;;;;;;;0.30;0.30;;;27.00;66.50;;;;;;5113762;28;20535;-71
2022/06/04 12:27:24;;;;;;;0.30;0.30;;;27.00;65.70;;;;;;5113763;28;20414;-70
2022/06/04 12:29:56;;;;;;;0.30;0.30;;;27.00;65.40;;;;;;5113622;28;20400;-71
2022/06/04 12:32:31;;;;;;;0.30;0.30;;;26.90;62.60;;;;;;5113313;28;20428;-71
2022/06/04 12:35:08;;;;;;;0.30;0.30;;;27.10;62.30;;;;;;5113364;28;20928;-69
2022/06/04 12:37:47;;;;;;;0.30;0.30;;;27.10;65.10;;;;;;5113511;28;20394;-70
2022/06/04 12:40:19;;;;;;;0.30;0.30;;;26.90;63.50;;;;;;5114109;28;20415;-70
2022/06/04 12:43:13;;;;;;;1.00;0.80;;;27.00;66.40;;;;;;5113142;28;20429;-70
2022/06/04 12:45:42;;;;;;;0.30;0.30;;;27.00;68.20;;;;;;5112056;28;20457;-69
2022/06/04 12:48:37;;;;;;;0.30;0.30;;;27.00;67.30;;;;;;5115850;28;20840;-70
2022/06/04 12:51:09;;;;;;;0.30;0.30;;;27.10;64.00;;;;;;5101722;28;20430;-70
2022/06/04 12:53:52;;;;;;;0.30;0.30;;;27.30;65.10;;;;;;5116867;28;20401;-72
2022/06/04 12:56:27;;;;;;;0.53;0.53;;;27.40;63.10;;;;;;5116960;28;20957;-69
2022/06/04 12:58:56;;;;;;;0.30;0.30;;;27.30;63.60;;;;;;5117103;28;20409;-69
2022/06/04 13:01:32;;;;;;;0.30;0.30;;;27.10;67.50;;;;;;5116829;28;20782;-69
2022/06/04 13:04:05;;;;;;;0.30;0.30;;;26.80;68.10;;;;;;5116463;28;20779;-70
2022/06/04 13:06:50;;;;;;;0.50;0.50;;;26.70;66.60;;;;;;5116934;28;20398;-71
2022/06/04 13:09:30;;;;;;;0.30;0.30;;;26.70;68.80;;;;;;5116807;28;20373;-70
2022/06/04 13:12:05;;;;;;;0.30;0.30;;;26.70;68.50;;;;;;5116648;28;20426;-71
2022/06/04 13:14:40;;;;;;;0.60;0.60;;;26.60;66.10;;;;;;5116569;28;20372;-71
2022/06/04 13:17:42;;;;;;;0.50;0.50;;;26.70;66.40;;;;;;5116695;28;20865;-68
2022/06/04 13:20:14;;;;;;;4.03;1.57;;;26.80;66.40;;;;;;5116505;28;20835;-71
2022/06/04 13:23:11;;;;;;;1.07;1.07;;;26.70;67.00;;;;;;5115988;28;20422;-71
2022/06/04 13:25:43;;;;;;;0.30;0.30;;;26.30;67.00;;;;;;5079203;28;20560;-71
2022/06/04 13:28:26;;;;;;;0.30;0.30;;;26.40;72.40;;;;;;5116080;28;20410;-71
2022/06/04 13:30:53;;;;;;;0.30;0.30;;;26.60;70.90;;;;;;5116164;27;20934;-71